首页
METAR-TAF:

METAR-TAF

机场 :

敖德薩國際機場

敖德薩, 乌克兰

纬度: 46-26N, 经度: 030-46E, 海拔: 42米

当前天气观测

该预报发布于7分钟前的07:20 UTC
风速10节,风向北转东北
温度 1°C
湿度 100%
气压 1006 hPa
能見度: 2800
阴天层高于400英尺
小雨, 轻雾

METAR: UKOO 240720Z 02005MPS 2800 -RA BR OVC004 01/01 Q1006 R34/290052 NOSIG

时间: 09:27 (07:27 UTC)

预报

该预报发布于2小时和21分钟前的05:06 UTC
预报有效从24日的 06点(UTC)到 25日的 06点(UTC)
风速14节,风向东北,有时为27节阵风
能見度: 2100
多云层高于400英尺
多云层高于1700英尺, 积雨云.
小阵雨, 轻雾
几率 40% :
短暂存在
从 24日的 06点(UTC)到 24日的 12点(UTC)
能見度: 0300
层高于200英尺
短暂存在
从 24日的 12点(UTC)到 24日的 15点(UTC)
能見度: 1200
多云层高于300英尺
多云层高于1500英尺, 积雨云.
阵雨, 雪, 轻雾
几率 40% :
短暂存在
从 24日的 15点(UTC)到 24日的 20点(UTC)
能見度: 0300
层高于200英尺
冻雨, 雪, 雾
成为
从 24日的 21点(UTC)到 24日的 22点(UTC)
能見度: 3000
多云层高于600英尺
散云层高于1700英尺, 积雨云.
轻雾

TAF: UKOO 240506Z 2406/2506 04007G14MPS 2100 -SHRA BR BKN004 BKN017CB TX04/2410Z TNM00/2415Z PROB40 TEMPO 2406/2412 0300 FG VV002 TEMPO 2412/2415 1200 SHRASN BR BKN003 BKN015CB PROB40 TEMPO 2415/2420 0300 FZRASN FG VV002 BECMG 2421/2422 3000 BR BKN006 SCT017CB

超过4000个机场的气象观测和天气预报(METAR&TAF报告)。

可查询的气象台以黄色和红色小点在地图上表示。

将鼠标移到小点上方,可查看气象台名称。

然后点击查看天气观测和预报。

如需切换地图:点击带黑十字的绿色按钮放大地图;点击带横线的绿色按钮缩小地图;或者点击绿色箭头查看邻近地区的地图。


METAR-TAF: